TAF Text Data
IDs:
Format:
Raw Decoded Include METAR

Data at: 1047 UTC 23 Jun 2021

KCAR 230528Z 2306/2406 32008KT P6SM VCSH OVC035
  FM230700 31005KT P6SM BKN040
  FM230900 32007KT P6SM SCT070
  FM231300 30009KT P6SM SCT040
  FM231800 29010KT P6SM SCT060
  FM232300 29005KT P6SM FEW120
  FM240300 VRB03KT P6SM FEW200